sensor_id;sensor_type;location;lat;lon;timestamp;temperature;humidity
45849;DHT22;31567;54.600;9.842;2023-08-08T00:02:44;14.70;92.20
45849;DHT22;31567;54.600;9.842;2023-08-08T00:06:23;14.60;92.20
45849;DHT22;31567;54.600;9.842;2023-08-08T00:10:03;14.70;92.40
45849;DHT22;31567;54.600;9.842;2023-08-08T00:13:43;14.60;92.50
45849;DHT22;31567;54.600;9.842;2023-08-08T00:17:22;14.60;92.60
45849;DHT22;31567;54.600;9.842;2023-08-08T00:21:02;14.70;92.60
45849;DHT22;31567;54.600;9.842;2023-08-08T00:24:41;14.60;92.50
45849;DHT22;31567;54.600;9.842;2023-08-08T00:28:21;14.70;92.30
45849;DHT22;31567;54.600;9.842;2023-08-08T00:32:00;14.70;92.30
45849;DHT22;31567;54.600;9.842;2023-08-08T00:35:40;14.60;92.20
45849;DHT22;31567;54.600;9.842;2023-08-08T00:39:20;14.70;92.50
45849;DHT22;31567;54.600;9.842;2023-08-08T00:42:59;14.70;92.70
45849;DHT22;31567;54.600;9.842;2023-08-08T00:46:39;14.60;92.70
45849;DHT22;31567;54.600;9.842;2023-08-08T00:50:19;14.70;92.90
45849;DHT22;31567;54.600;9.842;2023-08-08T00:53:58;14.70;93.00
45849;DHT22;31567;54.600;9.842;2023-08-08T00:57:38;14.60;93.00
45849;DHT22;31567;54.600;9.842;2023-08-08T01:01:18;14.70;93.10
45849;DHT22;31567;54.600;9.842;2023-08-08T01:04:58;14.70;93.20
45849;DHT22;31567;54.600;9.842;2023-08-08T01:08:53;14.70;93.30
45849;DHT22;31567;54.600;9.842;2023-08-08T01:12:41;14.70;93.30
45849;DHT22;31567;54.600;9.842;2023-08-08T01:16:24;14.60;93.30
45849;DHT22;31567;54.600;9.842;2023-08-08T01:20:06;14.60;93.30
45849;DHT22;31567;54.600;9.842;2023-08-08T01:23:56;14.60;93.30
45849;DHT22;31567;54.600;9.842;2023-08-08T01:27:39;14.70;93.20
45849;DHT22;31567;54.600;9.842;2023-08-08T01:31:19;14.50;93.10
45849;DHT22;31567;54.600;9.842;2023-08-08T01:34:59;14.50;93.00
45849;DHT22;31567;54.600;9.842;2023-08-08T01:38:41;14.60;93.00
45849;DHT22;31567;54.600;9.842;2023-08-08T01:42:23;14.50;92.90
45849;DHT22;31567;54.600;9.842;2023-08-08T01:46:04;14.50;92.90
45849;DHT22;31567;54.600;9.842;2023-08-08T01:49:44;14.50;92.90
45849;DHT22;31567;54.600;9.842;2023-08-08T01:53:23;14.50;93.00
45849;DHT22;31567;54.600;9.842;2023-08-08T01:57:03;14.50;93.00
45849;DHT22;31567;54.600;9.842;2023-08-08T02:00:43;14.50;93.10
45849;DHT22;31567;54.600;9.842;2023-08-08T02:04:24;14.50;93.10
45849;DHT22;31567;54.600;9.842;2023-08-08T02:08:04;14.40;93.20
45849;DHT22;31567;54.600;9.842;2023-08-08T02:11:43;14.40;93.20
45849;DHT22;31567;54.600;9.842;2023-08-08T02:15:23;14.40;93.20
45849;DHT22;31567;54.600;9.842;2023-08-08T02:19:03;14.40;93.30
45849;DHT22;31567;54.600;9.842;2023-08-08T02:22:42;14.40;93.30
45849;DHT22;31567;54.600;9.842;2023-08-08T02:26:22;14.40;93.40
45849;DHT22;31567;54.600;9.842;2023-08-08T02:30:02;14.30;93.40
45849;DHT22;31567;54.600;9.842;2023-08-08T02:33:41;14.30;93.40
45849;DHT22;31567;54.600;9.842;2023-08-08T02:37:21;14.30;93.30
45849;DHT22;31567;54.600;9.842;2023-08-08T02:41:00;14.30;93.30
45849;DHT22;31567;54.600;9.842;2023-08-08T02:44:40;14.30;93.30
45849;DHT22;31567;54.600;9.842;2023-08-08T02:48:19;14.40;93.40
45849;DHT22;31567;54.600;9.842;2023-08-08T02:52:00;14.40;93.70
45849;DHT22;31567;54.600;9.842;2023-08-08T02:55:40;14.30;93.50
45849;DHT22;31567;54.600;9.842;2023-08-08T02:59:19;14.30;93.50
45849;DHT22;31567;54.600;9.842;2023-08-08T03:03:00;14.30;93.50
45849;DHT22;31567;54.600;9.842;2023-08-08T03:06:39;14.20;93.50
45849;DHT22;31567;54.600;9.842;2023-08-08T03:10:19;14.30;93.60
45849;DHT22;31567;54.600;9.842;2023-08-08T03:13:58;14.20;93.70
45849;DHT22;31567;54.600;9.842;2023-08-08T03:17:38;14.20;93.70
45849;DHT22;31567;54.600;9.842;2023-08-08T03:21:17;14.20;93.70
45849;DHT22;31567;54.600;9.842;2023-08-08T03:24:57;14.20;93.80
45849;DHT22;31567;54.600;9.842;2023-08-08T03:28:37;14.10;93.80
45849;DHT22;31567;54.600;9.842;2023-08-08T03:32:17;14.20;93.90
45849;DHT22;31567;54.600;9.842;2023-08-08T03:35:56;14.20;94.00
45849;DHT22;31567;54.600;9.842;2023-08-08T03:39:36;14.10;94.10
45849;DHT22;31567;54.600;9.842;2023-08-08T03:43:15;14.20;94.20
45849;DHT22;31567;54.600;9.842;2023-08-08T03:46:55;14.20;94.30
45849;DHT22;31567;54.600;9.842;2023-08-08T03:50:34;14.10;94.40
45849;DHT22;31567;54.600;9.842;2023-08-08T03:54:14;14.10;94.60
45849;DHT22;31567;54.600;9.842;2023-08-08T03:57:54;14.10;94.80
45849;DHT22;31567;54.600;9.842;2023-08-08T04:01:34;14.20;95.00
45849;DHT22;31567;54.600;9.842;2023-08-08T04:05:13;14.10;95.40
45849;DHT22;31567;54.600;9.842;2023-08-08T04:08:53;14.20;95.50
45849;DHT22;31567;54.600;9.842;2023-08-08T04:12:32;14.20;95.70
45849;DHT22;31567;54.600;9.842;2023-08-08T04:16:12;14.20;96.00
45849;DHT22;31567;54.600;9.842;2023-08-08T04:19:52;14.20;95.90
45849;DHT22;31567;54.600;9.842;2023-08-08T04:23:31;14.30;95.90
45849;DHT22;31567;54.600;9.842;2023-08-08T04:27:11;14.40;96.00
45849;DHT22;31567;54.600;9.842;2023-08-08T04:30:51;14.40;96.00
45849;DHT22;31567;54.600;9.842;2023-08-08T04:34:30;14.40;96.10
45849;DHT22;31567;54.600;9.842;2023-08-08T04:38:10;14.40;96.40
45849;DHT22;31567;54.600;9.842;2023-08-08T04:41:49;14.40;96.60
45849;DHT22;31567;54.600;9.842;2023-08-08T04:45:29;14.50;96.90
45849;DHT22;31567;54.600;9.842;2023-08-08T04:49:08;14.50;97.10
45849;DHT22;31567;54.600;9.842;2023-08-08T04:52:48;14.60;97.30
45849;DHT22;31567;54.600;9.842;2023-08-08T04:56:27;14.70;97.50
45849;DHT22;31567;54.600;9.842;2023-08-08T05:00:08;14.70;97.50
45849;DHT22;31567;54.600;9.842;2023-08-08T05:03:48;14.70;97.50
45849;DHT22;31567;54.600;9.842;2023-08-08T05:07:28;14.80;97.50
45849;DHT22;31567;54.600;9.842;2023-08-08T05:11:07;14.90;97.40
45849;DHT22;31567;54.600;9.842;2023-08-08T05:14:47;14.90;97.00
45849;DHT22;31567;54.600;9.842;2023-08-08T05:18:26;15.00;96.90
45849;DHT22;31567;54.600;9.842;2023-08-08T05:22:06;15.00;96.70
45849;DHT22;31567;54.600;9.842;2023-08-08T05:25:45;15.20;96.60
45849;DHT22;31567;54.600;9.842;2023-08-08T05:29:25;15.30;96.50
45849;DHT22;31567;54.600;9.842;2023-08-08T05:33:05;15.30;96.60
45849;DHT22;31567;54.600;9.842;2023-08-08T05:36:44;15.40;96.70
45849;DHT22;31567;54.600;9.842;2023-08-08T05:40:24;15.50;96.90
45849;DHT22;31567;54.600;9.842;2023-08-08T05:44:03;15.50;96.70
45849;DHT22;31567;54.600;9.842;2023-08-08T05:47:43;15.60;96.60
45849;DHT22;31567;54.600;9.842;2023-08-08T05:51:22;15.70;96.50
45849;DHT22;31567;54.600;9.842;2023-08-08T05:55:02;15.80;96.40
45849;DHT22;31567;54.600;9.842;2023-08-08T05:58:42;16.00;96.30
45849;DHT22;31567;54.600;9.842;2023-08-08T06:02:21;16.10;95.90
45849;DHT22;31567;54.600;9.842;2023-08-08T06:06:01;16.20;95.40
45849;DHT22;31567;54.600;9.842;2023-08-08T06:09:40;16.30;94.90
45849;DHT22;31567;54.600;9.842;2023-08-08T06:13:20;16.40;94.60
45849;DHT22;31567;54.600;9.842;2023-08-08T06:17:00;16.40;94.70
45849;DHT22;31567;54.600;9.842;2023-08-08T06:20:39;16.50;94.90
45849;DHT22;31567;54.600;9.842;2023-08-08T06:24:19;16.40;95.70
45849;DHT22;31567;54.600;9.842;2023-08-08T06:27:58;16.40;96.10
45849;DHT22;31567;54.600;9.842;2023-08-08T06:31:38;16.50;96.20
45849;DHT22;31567;54.600;9.842;2023-08-08T06:35:17;16.50;96.10
45849;DHT22;31567;54.600;9.842;2023-08-08T06:38:57;16.50;95.90
45849;DHT22;31567;54.600;9.842;2023-08-08T06:42:37;16.60;95.80
45849;DHT22;31567;54.600;9.842;2023-08-08T06:46:16;16.70;95.40
45849;DHT22;31567;54.600;9.842;2023-08-08T06:49:56;16.80;95.30
45849;DHT22;31567;54.600;9.842;2023-08-08T06:53:35;16.90;94.80
45849;DHT22;31567;54.600;9.842;2023-08-08T06:57:15;17.00;94.90
45849;DHT22;31567;54.600;9.842;2023-08-08T07:00:54;16.80;95.60
45849;DHT22;31567;54.600;9.842;2023-08-08T07:04:34;16.60;96.10
45849;DHT22;31567;54.600;9.842;2023-08-08T07:08:13;16.60;96.60
45849;DHT22;31567;54.600;9.842;2023-08-08T07:11:53;16.60;96.60
45849;DHT22;31567;54.600;9.842;2023-08-08T07:15:32;16.60;96.90
45849;DHT22;31567;54.600;9.842;2023-08-08T07:19:12;16.80;97.00
45849;DHT22;31567;54.600;9.842;2023-08-08T07:22:52;16.80;96.90
45849;DHT22;31567;54.600;9.842;2023-08-08T07:26:32;17.00;96.90
45849;DHT22;31567;54.600;9.842;2023-08-08T07:30:11;17.10;96.50
45849;DHT22;31567;54.600;9.842;2023-08-08T07:33:51;17.10;96.20
45849;DHT22;31567;54.600;9.842;2023-08-08T07:37:31;17.30;95.70
45849;DHT22;31567;54.600;9.842;2023-08-08T07:41:12;17.40;94.90
45849;DHT22;31567;54.600;9.842;2023-08-08T07:44:51;17.60;93.90
45849;DHT22;31567;54.600;9.842;2023-08-08T07:48:31;17.70;93.50
45849;DHT22;31567;54.600;9.842;2023-08-08T07:52:11;17.60;93.30
45849;DHT22;31567;54.600;9.842;2023-08-08T07:55:50;17.70;93.50
45849;DHT22;31567;54.600;9.842;2023-08-08T07:59:30;17.70;92.90
45849;DHT22;31567;54.600;9.842;2023-08-08T08:03:10;17.60;93.10
45849;DHT22;31567;54.600;9.842;2023-08-08T08:06:49;17.80;93.90
45849;DHT22;31567;54.600;9.842;2023-08-08T08:10:29;18.00;94.10
45849;DHT22;31567;54.600;9.842;2023-08-08T08:14:08;18.00;93.90
45849;DHT22;31567;54.600;9.842;2023-08-08T08:17:48;18.10;93.80
45849;DHT22;31567;54.600;9.842;2023-08-08T08:21:27;18.30;94.20
45849;DHT22;31567;54.600;9.842;2023-08-08T08:25:07;18.30;94.00
45849;DHT22;31567;54.600;9.842;2023-08-08T08:28:48;18.40;94.30
45849;DHT22;31567;54.600;9.842;2023-08-08T08:32:28;18.40;93.70
45849;DHT22;31567;54.600;9.842;2023-08-08T08:36:07;18.40;93.30
45849;DHT22;31567;54.600;9.842;2023-08-08T08:39:47;18.30;91.90
45849;DHT22;31567;54.600;9.842;2023-08-08T08:43:26;18.40;90.70
45849;DHT22;31567;54.600;9.842;2023-08-08T08:47:08;18.40;90.50
45849;DHT22;31567;54.600;9.842;2023-08-08T08:50:51;18.50;90.90
45849;DHT22;31567;54.600;9.842;2023-08-08T08:54:32;18.60;90.90
45849;DHT22;31567;54.600;9.842;2023-08-08T08:58:14;18.60;91.50
45849;DHT22;31567;54.600;9.842;2023-08-08T09:01:56;18.60;91.10
45849;DHT22;31567;54.600;9.842;2023-08-08T09:05:36;18.70;89.90
45849;DHT22;31567;54.600;9.842;2023-08-08T09:09:17;18.70;90.10
45849;DHT22;31567;54.600;9.842;2023-08-08T09:13:01;18.80;89.60
45849;DHT22;31567;54.600;9.842;2023-08-08T09:16:42;18.90;89.10
45849;DHT22;31567;54.600;9.842;2023-08-08T09:20:22;19.10;89.80
45849;DHT22;31567;54.600;9.842;2023-08-08T09:24:01;19.20;89.60
45849;DHT22;31567;54.600;9.842;2023-08-08T09:27:41;18.90;91.40
45849;DHT22;31567;54.600;9.842;2023-08-08T09:31:25;18.70;93.70
45849;DHT22;31567;54.600;9.842;2023-08-08T09:35:05;18.40;93.80
45849;DHT22;31567;54.600;9.842;2023-08-08T09:38:49;17.90;94.00
45849;DHT22;31567;54.600;9.842;2023-08-08T09:42:29;17.60;94.80
45849;DHT22;31567;54.600;9.842;2023-08-08T09:46:08;17.50;95.10
45849;DHT22;31567;54.600;9.842;2023-08-08T09:49:48;17.50;95.30
45849;DHT22;31567;54.600;9.842;2023-08-08T09:53:28;17.50;94.60
45849;DHT22;31567;54.600;9.842;2023-08-08T09:57:10;17.30;94.50
45849;DHT22;31567;54.600;9.842;2023-08-08T10:00:50;17.00;94.00
45849;DHT22;31567;54.600;9.842;2023-08-08T10:04:30;16.90;94.70
45849;DHT22;31567;54.600;9.842;2023-08-08T10:08:09;16.60;95.20
45849;DHT22;31567;54.600;9.842;2023-08-08T10:11:50;16.30;95.40
45849;DHT22;31567;54.600;9.842;2023-08-08T10:15:29;16.10;95.90
45849;DHT22;31567;54.600;9.842;2023-08-08T10:19:09;16.00;96.50
45849;DHT22;31567;54.600;9.842;2023-08-08T10:22:52;15.80;96.90
45849;DHT22;31567;54.600;9.842;2023-08-08T10:26:50;15.70;96.90
45849;DHT22;31567;54.600;9.842;2023-08-08T10:30:41;15.50;96.50
45849;DHT22;31567;54.600;9.842;2023-08-08T10:34:21;15.50;97.50
45849;DHT22;31567;54.600;9.842;2023-08-08T10:38:08;15.40;97.50
45849;DHT22;31567;54.600;9.842;2023-08-08T10:41:49;15.50;97.40
45849;DHT22;31567;54.600;9.842;2023-08-08T10:45:30;15.50;97.60
45849;DHT22;31567;54.600;9.842;2023-08-08T10:49:12;15.50;97.70
45849;DHT22;31567;54.600;9.842;2023-08-08T10:56:31;15.90;98.60
45849;DHT22;31567;54.600;9.842;2023-08-08T11:00:17;16.30;98.30
45849;DHT22;31567;54.600;9.842;2023-08-08T11:03:57;16.70;97.80
45849;DHT22;31567;54.600;9.842;2023-08-08T11:07:37;16.60;97.00
45849;DHT22;31567;54.600;9.842;2023-08-08T11:11:17;16.40;97.40
45849;DHT22;31567;54.600;9.842;2023-08-08T11:14:56;16.20;97.60
45849;DHT22;31567;54.600;9.842;2023-08-08T11:18:37;15.90;97.50
45849;DHT22;31567;54.600;9.842;2023-08-08T11:22:16;15.80;97.60
45849;DHT22;31567;54.600;9.842;2023-08-08T11:25:57;15.60;97.50
45849;DHT22;31567;54.600;9.842;2023-08-08T11:29:37;15.50;97.70
45849;DHT22;31567;54.600;9.842;2023-08-08T11:33:16;15.40;98.00
45849;DHT22;31567;54.600;9.842;2023-08-08T11:36:58;15.40;98.80
45849;DHT22;31567;54.600;9.842;2023-08-08T11:40:39;15.60;98.80
45849;DHT22;31567;54.600;9.842;2023-08-08T11:44:19;15.60;98.50
45849;DHT22;31567;54.600;9.842;2023-08-08T11:47:59;15.60;98.30
45849;DHT22;31567;54.600;9.842;2023-08-08T11:51:38;15.60;98.30
45849;DHT22;31567;54.600;9.842;2023-08-08T11:55:18;15.50;98.30
45849;DHT22;31567;54.600;9.842;2023-08-08T11:59:01;15.60;98.40
45849;DHT22;31567;54.600;9.842;2023-08-08T12:02:44;15.60;98.50
45849;DHT22;31567;54.600;9.842;2023-08-08T12:06:28;15.70;98.60
45849;DHT22;31567;54.600;9.842;2023-08-08T12:10:20;15.90;98.90
45849;DHT22;31567;54.600;9.842;2023-08-08T12:14:00;16.30;99.20
45849;DHT22;31567;54.600;9.842;2023-08-08T12:17:42;16.70;98.70
45849;DHT22;31567;54.600;9.842;2023-08-08T12:21:21;17.00;98.60
45849;DHT22;31567;54.600;9.842;2023-08-08T12:25:01;17.40;98.00
45849;DHT22;31567;54.600;9.842;2023-08-08T12:28:42;17.60;97.00
45849;DHT22;31567;54.600;9.842;2023-08-08T12:32:24;17.80;96.40
45849;DHT22;31567;54.600;9.842;2023-08-08T12:36:06;17.80;95.70
45849;DHT22;31567;54.600;9.842;2023-08-08T12:39:45;17.80;93.70
45849;DHT22;31567;54.600;9.842;2023-08-08T12:43:25;17.80;93.30
45849;DHT22;31567;54.600;9.842;2023-08-08T12:47:04;17.70;92.40
45849;DHT22;31567;54.600;9.842;2023-08-08T12:50:44;17.60;92.40
45849;DHT22;31567;54.600;9.842;2023-08-08T12:54:24;17.40;92.30
45849;DHT22;31567;54.600;9.842;2023-08-08T12:58:03;17.00;92.60
45849;DHT22;31567;54.600;9.842;2023-08-08T13:01:43;17.00;94.20
45849;DHT22;31567;54.600;9.842;2023-08-08T13:05:22;16.90;95.10
45849;DHT22;31567;54.600;9.842;2023-08-08T13:09:02;17.10;95.60
45849;DHT22;31567;54.600;9.842;2023-08-08T13:12:42;17.20;95.70
45849;DHT22;31567;54.600;9.842;2023-08-08T13:16:21;17.40;95.10
45849;DHT22;31567;54.600;9.842;2023-08-08T13:20:01;17.50;95.40
45849;DHT22;31567;54.600;9.842;2023-08-08T13:23:41;17.80;95.80
45849;DHT22;31567;54.600;9.842;2023-08-08T13:27:21;18.00;95.40
45849;DHT22;31567;54.600;9.842;2023-08-08T13:31:00;18.30;94.80
45849;DHT22;31567;54.600;9.842;2023-08-08T13:34:40;18.40;94.00
45849;DHT22;31567;54.600;9.842;2023-08-08T13:38:20;18.40;93.70
45849;DHT22;31567;54.600;9.842;2023-08-08T13:42:00;18.30;93.40
45849;DHT22;31567;54.600;9.842;2023-08-08T13:45:39;17.90;93.50
45849;DHT22;31567;54.600;9.842;2023-08-08T13:49:19;17.80;94.10
45849;DHT22;31567;54.600;9.842;2023-08-08T13:52:58;17.50;94.30
45849;DHT22;31567;54.600;9.842;2023-08-08T13:56:38;17.30;95.00
45849;DHT22;31567;54.600;9.842;2023-08-08T14:00:17;17.00;94.80
45849;DHT22;31567;54.600;9.842;2023-08-08T14:03:57;16.70;95.00
45849;DHT22;31567;54.600;9.842;2023-08-08T14:07:36;16.50;94.90
45849;DHT22;31567;54.600;9.842;2023-08-08T14:11:16;16.40;95.30
45849;DHT22;31567;54.600;9.842;2023-08-08T14:14:55;16.60;95.90
45849;DHT22;31567;54.600;9.842;2023-08-08T14:18:35;16.80;95.70
45849;DHT22;31567;54.600;9.842;2023-08-08T14:22:15;17.10;95.30
45849;DHT22;31567;54.600;9.842;2023-08-08T14:25:54;17.40;95.50
45849;DHT22;31567;54.600;9.842;2023-08-08T14:29:34;17.50;95.30
45849;DHT22;31567;54.600;9.842;2023-08-08T14:33:15;17.70;95.80
45849;DHT22;31567;54.600;9.842;2023-08-08T14:36:55;17.80;95.50
45849;DHT22;31567;54.600;9.842;2023-08-08T14:40:34;17.60;95.50
45849;DHT22;31567;54.600;9.842;2023-08-08T14:44:14;17.50;96.60
45849;DHT22;31567;54.600;9.842;2023-08-08T14:47:53;17.60;97.70
45849;DHT22;31567;54.600;9.842;2023-08-08T14:51:33;17.70;97.50
45849;DHT22;31567;54.600;9.842;2023-08-08T14:55:12;17.70;96.50
45849;DHT22;31567;54.600;9.842;2023-08-08T14:58:52;17.90;95.70
45849;DHT22;31567;54.600;9.842;2023-08-08T15:02:31;18.00;95.20
45849;DHT22;31567;54.600;9.842;2023-08-08T15:06:11;18.10;95.10
45849;DHT22;31567;54.600;9.842;2023-08-08T15:09:51;18.20;94.20
45849;DHT22;31567;54.600;9.842;2023-08-08T15:13:30;18.20;93.80
45849;DHT22;31567;54.600;9.842;2023-08-08T15:17:10;18.20;94.00
45849;DHT22;31567;54.600;9.842;2023-08-08T15:20:49;18.40;93.80
45849;DHT22;31567;54.600;9.842;2023-08-08T15:24:29;18.30;93.30
45849;DHT22;31567;54.600;9.842;2023-08-08T15:28:09;18.10;93.50
45849;DHT22;31567;54.600;9.842;2023-08-08T15:31:48;18.00;92.40
45849;DHT22;31567;54.600;9.842;2023-08-08T15:35:28;18.20;92.60
45849;DHT22;31567;54.600;9.842;2023-08-08T15:39:07;18.40;92.40
45849;DHT22;31567;54.600;9.842;2023-08-08T15:42:47;18.40;90.90
45849;DHT22;31567;54.600;9.842;2023-08-08T15:46:27;18.60;91.10
45849;DHT22;31567;54.600;9.842;2023-08-08T15:50:07;18.70;90.70
45849;DHT22;31567;54.600;9.842;2023-08-08T15:53:47;18.60;90.30
45849;DHT22;31567;54.600;9.842;2023-08-08T15:57:27;18.60;90.60
45849;DHT22;31567;54.600;9.842;2023-08-08T16:01:07;18.30;90.60
45849;DHT22;31567;54.600;9.842;2023-08-08T16:04:47;18.10;91.10
45849;DHT22;31567;54.600;9.842;2023-08-08T16:08:27;18.00;92.00
45849;DHT22;31567;54.600;9.842;2023-08-08T16:12:07;18.20;92.30
45849;DHT22;31567;54.600;9.842;2023-08-08T16:15:46;18.30;92.40
45849;DHT22;31567;54.600;9.842;2023-08-08T16:19:26;18.30;92.00
45849;DHT22;31567;54.600;9.842;2023-08-08T16:23:05;18.30;91.70
45849;DHT22;31567;54.600;9.842;2023-08-08T16:26:45;18.10;91.00
45849;DHT22;31567;54.600;9.842;2023-08-08T16:30:25;18.30;90.70
45849;DHT22;31567;54.600;9.842;2023-08-08T16:34:04;18.30;90.40
45849;DHT22;31567;54.600;9.842;2023-08-08T16:37:44;18.40;90.00
45849;DHT22;31567;54.600;9.842;2023-08-08T16:41:24;18.40;88.80
45849;DHT22;31567;54.600;9.842;2023-08-08T16:45:04;18.30;88.50
45849;DHT22;31567;54.600;9.842;2023-08-08T16:48:43;18.00;89.10
45849;DHT22;31567;54.600;9.842;2023-08-08T16:52:23;17.80;90.20
45849;DHT22;31567;54.600;9.842;2023-08-08T16:56:02;17.60;90.90
45849;DHT22;31567;54.600;9.842;2023-08-08T16:59:46;17.60;91.60
45849;DHT22;31567;54.600;9.842;2023-08-08T17:03:25;17.80;92.00
45849;DHT22;31567;54.600;9.842;2023-08-08T17:07:05;17.90;91.80
45849;DHT22;31567;54.600;9.842;2023-08-08T17:10:45;18.10;91.40
45849;DHT22;31567;54.600;9.842;2023-08-08T17:14:24;18.30;90.50
45849;DHT22;31567;54.600;9.842;2023-08-08T17:18:04;18.50;90.50
45849;DHT22;31567;54.600;9.842;2023-08-08T17:21:44;18.70;90.20
45849;DHT22;31567;54.600;9.842;2023-08-08T17:25:23;18.70;87.90
45849;DHT22;31567;54.600;9.842;2023-08-08T17:29:04;19.00;87.30
45849;DHT22;31567;54.600;9.842;2023-08-08T17:32:43;19.00;86.00
45849;DHT22;31567;54.600;9.842;2023-08-08T17:36:23;19.10;85.10
45849;DHT22;31567;54.600;9.842;2023-08-08T17:40:03;19.20;85.30
45849;DHT22;31567;54.600;9.842;2023-08-08T17:43:42;19.20;85.00
45849;DHT22;31567;54.600;9.842;2023-08-08T17:47:22;19.20;85.20
45849;DHT22;31567;54.600;9.842;2023-08-08T17:51:01;19.10;86.10
45849;DHT22;31567;54.600;9.842;2023-08-08T17:54:41;19.10;86.40
45849;DHT22;31567;54.600;9.842;2023-08-08T17:58:21;18.90;87.40
45849;DHT22;31567;54.600;9.842;2023-08-08T18:02:00;18.60;88.50
45849;DHT22;31567;54.600;9.842;2023-08-08T18:05:40;18.20;89.90
45849;DHT22;31567;54.600;9.842;2023-08-08T18:09:19;18.00;90.50
45849;DHT22;31567;54.600;9.842;2023-08-08T18:13:04;17.70;91.10
45849;DHT22;31567;54.600;9.842;2023-08-08T18:16:44;17.50;91.90
45849;DHT22;31567;54.600;9.842;2023-08-08T18:20:23;17.30;92.60
45849;DHT22;31567;54.600;9.842;2023-08-08T18:24:03;17.20;93.10
45849;DHT22;31567;54.600;9.842;2023-08-08T18:27:43;17.00;93.40
45849;DHT22;31567;54.600;9.842;2023-08-08T18:31:22;16.80;93.90
45849;DHT22;31567;54.600;9.842;2023-08-08T18:35:02;16.70;94.30
45849;DHT22;31567;54.600;9.842;2023-08-08T18:38:42;16.50;94.80
45849;DHT22;31567;54.600;9.842;2023-08-08T18:42:22;16.40;95.30
45849;DHT22;31567;54.600;9.842;2023-08-08T18:46:01;16.10;95.90
45849;DHT22;31567;54.600;9.842;2023-08-08T18:49:41;16.00;96.50
45849;DHT22;31567;54.600;9.842;2023-08-08T18:53:21;15.80;96.80
45849;DHT22;31567;54.600;9.842;2023-08-08T18:57:01;15.70;97.00
45849;DHT22;31567;54.600;9.842;2023-08-08T19:00:40;15.60;97.10
45849;DHT22;31567;54.600;9.842;2023-08-08T19:04:20;15.50;97.00
45849;DHT22;31567;54.600;9.842;2023-08-08T19:08:00;15.50;96.80
45849;DHT22;31567;54.600;9.842;2023-08-08T19:11:39;15.40;96.60
45849;DHT22;31567;54.600;9.842;2023-08-08T19:15:19;15.30;96.50
45849;DHT22;31567;54.600;9.842;2023-08-08T19:18:58;15.30;96.50
45849;DHT22;31567;54.600;9.842;2023-08-08T19:22:38;15.20;96.70
45849;DHT22;31567;54.600;9.842;2023-08-08T19:26:18;15.20;97.00
45849;DHT22;31567;54.600;9.842;2023-08-08T19:29:58;15.10;97.20
45849;DHT22;31567;54.600;9.842;2023-08-08T19:33:38;15.00;97.50
45849;DHT22;31567;54.600;9.842;2023-08-08T19:37:17;15.00;97.90
45849;DHT22;31567;54.600;9.842;2023-08-08T19:40:57;14.90;98.20
45849;DHT22;31567;54.600;9.842;2023-08-08T19:44:37;14.90;98.50
45849;DHT22;31567;54.600;9.842;2023-08-08T19:48:17;14.80;98.60
45849;DHT22;31567;54.600;9.842;2023-08-08T19:51:56;14.80;98.70
45849;DHT22;31567;54.600;9.842;2023-08-08T19:55:36;14.80;99.00
45849;DHT22;31567;54.600;9.842;2023-08-08T19:59:16;14.70;99.10
45849;DHT22;31567;54.600;9.842;2023-08-08T20:02:55;14.70;99.30
45849;DHT22;31567;54.600;9.842;2023-08-08T20:06:35;14.70;99.40
45849;DHT22;31567;54.600;9.842;2023-08-08T20:10:15;14.60;99.50
45849;DHT22;31567;54.600;9.842;2023-08-08T20:13:54;14.60;99.80
45849;DHT22;31567;54.600;9.842;2023-08-08T20:17:34;14.50;99.90
45849;DHT22;31567;54.600;9.842;2023-08-08T20:21:13;14.50;99.90
45849;DHT22;31567;54.600;9.842;2023-08-08T20:24:53;14.50;99.90
45849;DHT22;31567;54.600;9.842;2023-08-08T20:28:32;14.50;99.90
45849;DHT22;31567;54.600;9.842;2023-08-08T20:32:12;14.50;99.90
45849;DHT22;31567;54.600;9.842;2023-08-08T20:35:52;14.50;99.90
45849;DHT22;31567;54.600;9.842;2023-08-08T20:39:31;14.50;99.90
45849;DHT22;31567;54.600;9.842;2023-08-08T20:43:11;14.50;99.90
45849;DHT22;31567;54.600;9.842;2023-08-08T20:46:50;14.50;99.90
45849;DHT22;31567;54.600;9.842;2023-08-08T20:50:30;14.50;99.90
45849;DHT22;31567;54.600;9.842;2023-08-08T20:54:09;14.50;99.90
45849;DHT22;31567;54.600;9.842;2023-08-08T20:57:49;14.40;99.90
45849;DHT22;31567;54.600;9.842;2023-08-08T21:01:29;14.30;99.90
45849;DHT22;31567;54.600;9.842;2023-08-08T21:05:09;14.40;99.90
45849;DHT22;31567;54.600;9.842;2023-08-08T21:08:48;14.40;99.90
45849;DHT22;31567;54.600;9.842;2023-08-08T21:12:28;14.30;99.90
45849;DHT22;31567;54.600;9.842;2023-08-08T21:16:07;14.30;99.90
45849;DHT22;31567;54.600;9.842;2023-08-08T21:19:47;14.20;99.90
45849;DHT22;31567;54.600;9.842;2023-08-08T21:23:28;14.30;99.90
45849;DHT22;31567;54.600;9.842;2023-08-08T21:27:08;14.20;99.90
45849;DHT22;31567;54.600;9.842;2023-08-08T21:30:47;14.30;99.70
45849;DHT22;31567;54.600;9.842;2023-08-08T21:34:27;14.20;99.50
45849;DHT22;31567;54.600;9.842;2023-08-08T21:38:07;14.20;99.30
45849;DHT22;31567;54.600;9.842;2023-08-08T21:41:49;14.20;99.20
45849;DHT22;31567;54.600;9.842;2023-08-08T21:45:29;14.20;99.30
45849;DHT22;31567;54.600;9.842;2023-08-08T21:49:08;14.20;99.60
45849;DHT22;31567;54.600;9.842;2023-08-08T21:52:48;14.20;99.80
45849;DHT22;31567;54.600;9.842;2023-08-08T21:56:28;14.20;99.90
45849;DHT22;31567;54.600;9.842;2023-08-08T22:00:09;14.20;99.90
45849;DHT22;31567;54.600;9.842;2023-08-08T22:03:52;14.20;99.90
45849;DHT22;31567;54.600;9.842;2023-08-08T22:07:32;14.20;99.90
45849;DHT22;31567;54.600;9.842;2023-08-08T22:11:12;14.10;99.90
45849;DHT22;31567;54.600;9.842;2023-08-08T22:14:52;14.10;99.90
45849;DHT22;31567;54.600;9.842;2023-08-08T22:18:31;14.10;99.90
45849;DHT22;31567;54.600;9.842;2023-08-08T22:22:11;14.10;99.90
45849;DHT22;31567;54.600;9.842;2023-08-08T22:25:51;14.10;99.90
45849;DHT22;31567;54.600;9.842;2023-08-08T22:29:30;14.20;99.90
45849;DHT22;31567;54.600;9.842;2023-08-08T22:33:10;14.20;99.90
45849;DHT22;31567;54.600;9.842;2023-08-08T22:36:50;14.10;99.90
45849;DHT22;31567;54.600;9.842;2023-08-08T22:40:29;14.10;99.90
45849;DHT22;31567;54.600;9.842;2023-08-08T22:44:09;14.00;99.90
45849;DHT22;31567;54.600;9.842;2023-08-08T22:47:48;14.10;99.90
45849;DHT22;31567;54.600;9.842;2023-08-08T22:51:28;14.00;99.90
45849;DHT22;31567;54.600;9.842;2023-08-08T22:55:08;14.00;99.90
45849;DHT22;31567;54.600;9.842;2023-08-08T22:58:48;14.00;99.90
45849;DHT22;31567;54.600;9.842;2023-08-08T23:02:28;14.00;99.90
45849;DHT22;31567;54.600;9.842;2023-08-08T23:06:08;14.00;99.90
45849;DHT22;31567;54.600;9.842;2023-08-08T23:09:47;14.00;99.90
45849;DHT22;31567;54.600;9.842;2023-08-08T23:13:27;14.00;99.90